createdAt,value
2023-02-24T00:02:32.866Z,68.88
2023-02-24T00:05:58.273Z,68.92
2023-02-24T00:09:30.254Z,69.06
2023-02-24T00:13:30.968Z,69.37
2023-02-24T00:17:40.370Z,69.54
2023-02-24T00:21:12.359Z,69.77
2023-02-24T00:24:40.281Z,69.91
2023-02-24T00:28:15.139Z,70.34
2023-02-24T00:31:50.499Z,70.11
2023-02-24T00:35:23.732Z,70.42
2023-02-24T00:38:47.321Z,70.97
2023-02-24T00:42:26.236Z,70.97
2023-02-24T00:46:38.584Z,71.29
2023-02-24T00:50:31.333Z,71.65
2023-02-24T00:54:01.571Z,71.90
2023-02-24T00:57:42.086Z,71.83
2023-02-24T01:01:14.395Z,71.79
2023-02-24T01:05:07.028Z,71.81
2023-02-24T01:08:59.270Z,71.98
2023-02-24T01:12:59.673Z,72.33
2023-02-24T01:16:28.735Z,72.10
2023-02-24T01:20:14.186Z,72.28
2023-02-24T01:23:35.783Z,72.39
2023-02-24T01:27:00.458Z,72.03
2023-02-24T01:30:23.791Z,72.11
2023-02-24T01:33:49.417Z,71.60
2023-02-24T01:37:03.818Z,72.62
2023-02-24T01:40:40.623Z,72.40
2023-02-24T01:44:34.026Z,72.22
2023-02-24T01:48:00.228Z,73.50
2023-02-24T01:51:52.576Z,73.73
2023-02-24T01:55:47.097Z,73.78
2023-02-24T01:58:48.135Z,73.95
2023-02-24T02:01:58.614Z,74.06
2023-02-24T02:05:16.780Z,73.96
2023-02-24T02:08:59.747Z,74.14
2023-02-24T02:13:01.835Z,74.03
2023-02-24T02:17:06.221Z,73.62
2023-02-24T02:21:11.313Z,73.70
2023-02-24T02:24:52.374Z,73.54
2023-02-24T02:27:58.291Z,73.61
2023-02-24T02:31:42.248Z,73.82
2023-02-24T02:35:38.341Z,73.59
2023-02-24T02:39:28.331Z,72.96
2023-02-24T02:43:05.966Z,72.87
2023-02-24T02:46:23.978Z,73.45
2023-02-24T02:50:19.323Z,73.71
2023-02-24T02:54:18.977Z,73.64
2023-02-24T02:57:53.614Z,73.66
2023-02-24T03:01:16.594Z,73.38
2023-02-24T03:04:15.305Z,72.76
2023-02-24T03:07:49.977Z,73.44
2023-02-24T03:11:14.198Z,73.78
2023-02-24T03:14:57.776Z,73.75
2023-02-24T03:18:24.650Z,73.84
2023-02-24T03:22:12.284Z,73.97
2023-02-24T03:24:46.850Z,73.85
2023-02-24T03:28:20.274Z,73.31
2023-02-24T03:32:07.062Z,73.44
2023-02-24T03:35:58.928Z,73.34
2023-02-24T03:39:51.478Z,73.24
2023-02-24T03:43:16.850Z,73.43
2023-02-24T03:46:39.957Z,73.43
2023-02-24T03:49:37.653Z,73.63
2023-02-24T03:53:52.958Z,73.67
2023-02-24T03:58:03.677Z,73.44
2023-02-24T04:01:55.548Z,73.61
2023-02-24T04:05:57.133Z,73.22
2023-02-24T04:09:31.333Z,73.42
2023-02-24T04:13:36.715Z,73.44
2023-02-24T04:17:28.569Z,73.54
2023-02-24T04:21:14.326Z,73.46
2023-02-24T04:25:06.892Z,73.64
2023-02-24T04:28:44.939Z,73.30
2023-02-24T04:32:46.072Z,73.32
2023-02-24T04:36:55.644Z,73.12
2023-02-24T04:41:01.770Z,73.38
2023-02-24T04:44:51.433Z,73.11
2023-02-24T04:48:26.862Z,72.95
2023-02-24T04:51:55.862Z,72.98
2023-02-24T04:56:05.426Z,72.93
2023-02-24T05:00:07.582Z,72.91
2023-02-24T05:03:59.745Z,72.92
2023-02-24T05:06:57.571Z,72.79
2023-02-24T05:09:42.327Z,72.52
2023-02-24T05:13:20.045Z,72.34
2023-02-24T05:17:13.255Z,72.40
2023-02-24T05:20:39.890Z,72.61
2023-02-24T05:24:29.654Z,72.70
2023-02-24T05:27:30.174Z,72.67
2023-02-24T05:30:56.053Z,72.32
2023-02-24T05:34:54.919Z,72.19
2023-02-24T05:38:19.777Z,71.85
2023-02-24T05:42:22.566Z,71.58
2023-02-24T05:46:27.075Z,71.72
2023-02-24T05:49:39.781Z,71.13
2023-02-24T05:52:56.031Z,71.00
2023-02-24T05:55:58.778Z,70.96
2023-02-24T05:59:33.660Z,70.81
2023-02-24T06:02:51.037Z,70.68
2023-02-24T06:06:42.833Z,70.45
2023-02-24T06:10:35.114Z,70.47
2023-02-24T06:14:23.266Z,70.40
2023-02-24T06:17:41.356Z,70.31
2023-02-24T06:21:43.880Z,70.08
2023-02-24T06:25:24.786Z,69.86
2023-02-24T06:29:25.061Z,69.73
2023-02-24T06:32:26.666Z,69.66
2023-02-24T06:35:15.902Z,69.63
2023-02-24T06:38:49.190Z,69.58
2023-02-24T06:42:23.985Z,69.61
2023-02-24T06:46:33.436Z,68.72
2023-02-24T06:50:32.898Z,68.69
2023-02-24T06:54:36.340Z,67.85
2023-02-24T06:57:50.575Z,67.82
2023-02-24T07:01:08.942Z,67.12
2023-02-24T07:04:58.474Z,66.79
2023-02-24T07:08:32.862Z,66.28
2023-02-24T07:12:05.115Z,66.66
2023-02-24T07:16:11.147Z,66.84
2023-02-24T07:19:47.834Z,66.94
2023-02-24T07:23:58.565Z,65.37
2023-02-24T07:28:14.505Z,64.60
2023-02-24T07:32:24.335Z,65.30
2023-02-24T07:36:08.596Z,64.51
2023-02-24T07:40:07.361Z,64.73
2023-02-24T07:44:19.577Z,63.84
2023-02-24T07:48:29.674Z,63.03
2023-02-24T07:52:31.567Z,62.67
2023-02-24T07:56:01.219Z,63.13
2023-02-24T07:59:59.669Z,63.08
2023-02-24T08:03:49.925Z,61.92
2023-02-24T08:07:58.638Z,61.29
2023-02-24T08:12:01.447Z,62.93
2023-02-24T08:15:36.144Z,61.52
2023-02-24T08:19:38.963Z,62.49
2023-02-24T08:23:23.798Z,61.68
2023-02-24T08:27:33.651Z,61.09
2023-02-24T08:31:28.503Z,60.97
2023-02-24T08:35:31.099Z,61.28
2023-02-24T08:39:40.496Z,61.69
2023-02-24T08:43:55.684Z,61.29
2023-02-24T08:48:05.404Z,59.14
2023-02-24T08:51:29.213Z,57.36
2023-02-24T08:55:21.553Z,57.38
2023-02-24T08:59:35.336Z,58.33
2023-02-24T09:03:49.362Z,58.50
2023-02-24T09:07:22.092Z,59.00
2023-02-24T09:11:10.301Z,58.70
2023-02-24T09:15:03.300Z,59.35
2023-02-24T09:19:11.106Z,59.52
2023-02-24T09:23:23.591Z,59.66
2023-02-24T09:27:31.977Z,60.08
2023-02-24T09:31:15.940Z,60.68
2023-02-24T09:35:23.969Z,60.61
2023-02-24T09:39:15.145Z,60.74
2023-02-24T09:42:47.293Z,61.02
2023-02-24T09:45:47.207Z,61.03
2023-02-24T09:49:30.403Z,61.52
2023-02-24T09:53:41.590Z,61.36
2023-02-24T09:57:43.738Z,61.60
2023-02-24T10:01:15.992Z,61.69
2023-02-24T10:05:03.344Z,61.91
2023-02-24T10:08:43.479Z,63.03
2023-02-24T10:12:55.506Z,63.74
2023-02-24T10:16:45.511Z,62.67
2023-02-24T10:20:38.102Z,62.09
2023-02-24T10:24:21.404Z,61.87
2023-02-24T10:28:33.375Z,60.68
2023-02-24T10:32:47.328Z,57.96
2023-02-24T10:36:51.698Z,57.78
2023-02-24T10:41:04.320Z,58.41
2023-02-24T10:45:03.372Z,59.39
2023-02-24T10:49:21.983Z,60.22
2023-02-24T10:53:54.960Z,60.72
2023-02-24T10:57:58.984Z,60.17
2023-02-24T11:01:44.665Z,60.55
2023-02-24T11:05:57.173Z,60.47
2023-02-24T11:10:10.425Z,60.78
2023-02-24T11:14:06.292Z,63.29
2023-02-24T11:18:11.242Z,63.46
2023-02-24T11:22:20.962Z,61.80
2023-02-24T11:26:07.105Z,61.92
2023-02-24T11:30:19.066Z,61.49
2023-02-24T11:33:46.232Z,61.07
2023-02-24T11:37:56.010Z,60.98
2023-02-24T11:42:07.199Z,59.82
2023-02-24T11:45:42.852Z,57.34
2023-02-24T11:49:14.843Z,56.58
2023-02-24T11:53:16.028Z,57.54
2023-02-24T11:56:09.344Z,57.54
2023-02-24T11:59:58.273Z,57.93
2023-02-24T12:03:51.291Z,58.41
2023-02-24T12:07:40.585Z,58.62
2023-02-24T12:11:23.876Z,59.05
2023-02-24T12:15:06.620Z,59.42
2023-02-24T12:19:06.588Z,59.49
2023-02-24T12:22:34.799Z,59.57
2023-02-24T12:27:05.852Z,59.70
2023-02-24T12:31:13.676Z,59.84
2023-02-24T12:35:16.563Z,59.85
2023-02-24T12:39:31.761Z,59.99
2023-02-24T12:42:43.305Z,60.09
2023-02-24T12:46:16.952Z,60.18
2023-02-24T12:50:00.632Z,60.04
2023-02-24T12:53:43.779Z,60.17
2023-02-24T12:58:03.711Z,60.20
2023-02-24T13:02:17.626Z,60.40
2023-02-24T13:06:03.069Z,60.19
2023-02-24T13:10:01.390Z,59.76
2023-02-24T13:13:47.102Z,59.42
2023-02-24T13:17:45.066Z,59.32
2023-02-24T13:22:10.372Z,59.10
2023-02-24T13:25:59.832Z,59.18
2023-02-24T13:29:40.910Z,58.92
2023-02-24T13:33:44.951Z,58.84
2023-02-24T13:37:39.564Z,58.86
2023-02-24T13:41:46.575Z,58.81
2023-02-24T13:45:41.860Z,58.77
2023-02-24T13:49:27.254Z,58.80
2023-02-24T13:53:10.471Z,58.32
2023-02-24T13:56:57.188Z,58.65
2023-02-24T14:00:25.396Z,58.30
2023-02-24T14:04:27.304Z,58.08
2023-02-24T14:08:38.044Z,58.25
2023-02-24T14:12:09.347Z,58.44
2023-02-24T14:16:19.037Z,58.33
2023-02-24T14:20:18.730Z,58.44
2023-02-24T14:24:02.386Z,57.93
2023-02-24T14:28:14.555Z,57.98
2023-02-24T14:31:52.169Z,57.99
2023-02-24T14:35:48.299Z,58.03
2023-02-24T14:39:30.468Z,58.06
2023-02-24T14:43:06.421Z,58.22
2023-02-24T14:46:55.340Z,58.46
2023-02-24T14:50:53.883Z,58.63
2023-02-24T14:55:03.709Z,58.83
2023-02-24T14:59:13.967Z,58.98
2023-02-24T15:02:44.160Z,59.11
2023-02-24T15:06:04.057Z,59.44
2023-02-24T15:09:38.566Z,59.49
2023-02-24T15:13:38.194Z,59.63
2023-02-24T15:17:50.533Z,59.77
2023-02-24T15:22:01.437Z,59.70
2023-02-24T15:26:23.106Z,59.67
2023-02-24T15:30:01.314Z,59.77
2023-02-24T15:34:16.539Z,59.83
2023-02-24T15:37:28.601Z,59.78
2023-02-24T15:40:58.579Z,60.01
2023-02-24T15:45:05.911Z,60.04
2023-02-24T15:49:17.365Z,60.17
2023-02-24T15:53:26.565Z,60.58
2023-02-24T15:57:10.215Z,60.77
2023-02-24T16:00:59.915Z,61.12
2023-02-24T16:05:09.671Z,61.22
2023-02-24T16:09:00.869Z,61.48
2023-02-24T16:12:41.178Z,61.78
2023-02-24T16:16:43.694Z,62.00
2023-02-24T16:20:35.763Z,63.73
2023-02-24T16:24:46.190Z,64.97
2023-02-24T16:28:46.711Z,64.49
2023-02-24T16:32:53.304Z,63.97
2023-02-24T16:37:03.267Z,63.53
2023-02-24T16:40:40.761Z,63.27
2023-02-24T16:44:50.395Z,62.83
2023-02-24T16:48:18.422Z,62.50
2023-02-24T16:51:48.913Z,62.23
2023-02-24T16:54:59.428Z,62.09
2023-02-24T16:58:52.814Z,62.01
2023-02-24T17:03:05.223Z,61.86
2023-02-24T17:06:42.795Z,61.64
2023-02-24T17:09:51.717Z,61.94
2023-02-24T17:13:02.320Z,61.96
2023-02-24T17:21:21.273Z,62.39
2023-02-24T17:25:08.236Z,62.44
2023-02-24T17:28:57.664Z,62.48
2023-02-24T17:33:07.106Z,62.67
2023-02-24T17:37:13.162Z,62.73
2023-02-24T17:41:11.723Z,62.78
2023-02-24T17:44:56.387Z,62.75
2023-02-24T17:48:55.899Z,62.79
2023-02-24T17:53:05.668Z,62.80
2023-02-24T17:56:57.941Z,62.87
2023-02-24T18:00:52.964Z,62.92
2023-02-24T18:05:02.592Z,63.09
2023-02-24T18:09:00.480Z,63.37
2023-02-24T18:12:49.905Z,63.53
2023-02-24T18:16:59.516Z,63.90
2023-02-24T18:20:44.471Z,64.14
2023-02-24T18:24:29.471Z,64.44
2023-02-24T18:28:31.507Z,64.50
2023-02-24T18:32:41.425Z,64.86
2023-02-24T18:36:04.875Z,65.15
2023-02-24T18:40:08.721Z,65.36
2023-02-24T18:44:18.072Z,65.45
2023-02-24T18:48:20.607Z,65.85
2023-02-24T18:52:18.652Z,65.92
2023-02-24T18:56:07.935Z,66.07
2023-02-24T19:00:12.094Z,66.17
2023-02-24T19:04:11.406Z,66.36
2023-02-24T19:08:13.888Z,66.45
2023-02-24T19:12:14.155Z,66.52
2023-02-24T19:16:23.956Z,66.87
2023-02-24T19:20:16.625Z,66.98
2023-02-24T19:23:50.508Z,67.13
2023-02-24T19:28:00.609Z,67.38
2023-02-24T19:32:10.207Z,67.48
2023-02-24T19:36:18.407Z,67.69
2023-02-24T19:40:28.016Z,67.87
2023-02-24T19:44:00.780Z,68.09
2023-02-24T19:48:10.198Z,68.19
2023-02-24T19:51:56.865Z,68.41
2023-02-24T19:55:39.617Z,68.64
2023-02-24T19:59:32.311Z,68.87
2023-02-24T20:03:40.256Z,69.22
2023-02-24T20:07:50.095Z,69.62
2023-02-24T20:11:59.563Z,69.93
2023-02-24T20:15:40.467Z,70.09
2023-02-24T20:19:43.024Z,70.42
2023-02-24T20:23:55.387Z,70.51
2023-02-24T20:28:04.938Z,70.57
2023-02-24T20:32:14.869Z,70.64
2023-02-24T20:36:24.892Z,70.58
2023-02-24T20:40:07.400Z,70.42
2023-02-24T20:43:58.519Z,70.41
2023-02-24T20:47:53.434Z,70.29
2023-02-24T20:51:44.491Z,70.31
2023-02-24T20:55:54.149Z,70.46
2023-02-24T21:00:02.549Z,70.53
2023-02-24T21:04:13.140Z,70.54
2023-02-24T21:08:22.670Z,70.60
2023-02-24T21:12:36.487Z,70.56
2023-02-24T21:16:28.241Z,70.52
2023-02-24T21:20:27.874Z,70.52
2023-02-24T21:24:33.313Z,70.42
2023-02-24T21:28:43.171Z,70.33
2023-02-24T21:32:52.714Z,70.26
2023-02-24T21:36:51.015Z,70.16
2023-02-24T21:41:00.668Z,70.02
2023-02-24T21:45:02.957Z,69.88
2023-02-24T21:49:12.532Z,69.85
2023-02-24T21:53:21.200Z,69.77
2023-02-24T21:57:30.683Z,69.72
2023-02-24T22:01:40.269Z,69.67
2023-02-24T22:05:49.805Z,69.54
2023-02-24T22:09:35.120Z,69.45
2023-02-24T22:13:37.171Z,69.34
2023-02-24T22:17:37.985Z,69.29
2023-02-24T22:21:45.549Z,69.26
2023-02-24T22:25:43.997Z,69.16
2023-02-24T22:29:53.431Z,68.97
2023-02-24T22:34:03.050Z,68.78
2023-02-24T22:38:12.523Z,68.77
2023-02-24T22:42:22.289Z,68.73
2023-02-24T22:46:37.513Z,68.74
2023-02-24T22:50:47.294Z,68.75
2023-02-24T22:54:56.519Z,68.66
2023-02-24T22:59:05.933Z,68.59
2023-02-24T23:02:48.550Z,68.51
2023-02-24T23:06:40.011Z,68.41
2023-02-24T23:10:49.895Z,68.42
2023-02-24T23:14:59.556Z,68.46
2023-02-24T23:18:52.079Z,68.45
2023-02-24T23:23:01.668Z,68.46
2023-02-24T23:27:03.888Z,68.44
2023-02-24T23:31:03.304Z,68.38
2023-02-24T23:35:05.646Z,68.36
2023-02-24T23:39:05.153Z,68.40
2023-02-24T23:42:54.368Z,68.43
2023-02-24T23:47:04.108Z,68.46
2023-02-24T23:51:12.412Z,68.48
2023-02-24T23:55:02.125Z,68.51
2023-02-24T23:59:11.539Z,68.65
